sensor_id;sensor_type;location;lat;lon;timestamp;temperature;humidity
12926;DHT22;6529;50.566;9.774;2022-12-29T00:01:14;7.80;99.90
12926;DHT22;6529;50.566;9.774;2022-12-29T00:03:39;7.90;99.90
12926;DHT22;6529;50.566;9.774;2022-12-29T00:06:05;7.80;99.90
12926;DHT22;6529;50.566;9.774;2022-12-29T00:08:30;7.80;99.90
12926;DHT22;6529;50.566;9.774;2022-12-29T00:11:06;7.80;99.90
12926;DHT22;6529;50.566;9.774;2022-12-29T00:13:33;7.80;99.90
12926;DHT22;6529;50.566;9.774;2022-12-29T00:16:17;7.80;99.90
12926;DHT22;6529;50.566;9.774;2022-12-29T00:18:42;7.90;99.90
12926;DHT22;6529;50.566;9.774;2022-12-29T00:21:15;7.90;99.90
12926;DHT22;6529;50.566;9.774;2022-12-29T00:23:59;7.90;99.90
12926;DHT22;6529;50.566;9.774;2022-12-29T00:26:34;8.10;99.90
12926;DHT22;6529;50.566;9.774;2022-12-29T00:29:18;8.20;99.90
12926;DHT22;6529;50.566;9.774;2022-12-29T00:32:02;8.10;99.90
12926;DHT22;6529;50.566;9.774;2022-12-29T00:34:46;8.10;99.90
12926;DHT22;6529;50.566;9.774;2022-12-29T00:37:30;8.10;99.90
12926;DHT22;6529;50.566;9.774;2022-12-29T00:40:14;8.20;99.90
12926;DHT22;6529;50.566;9.774;2022-12-29T00:42:58;8.20;99.90
12926;DHT22;6529;50.566;9.774;2022-12-29T00:45:42;8.20;99.90
12926;DHT22;6529;50.566;9.774;2022-12-29T00:48:08;8.30;99.90
12926;DHT22;6529;50.566;9.774;2022-12-29T00:50:33;8.40;99.90
12926;DHT22;6529;50.566;9.774;2022-12-29T00:52:59;8.40;99.90
12926;DHT22;6529;50.566;9.774;2022-12-29T00:55:24;8.40;99.90
12926;DHT22;6529;50.566;9.774;2022-12-29T00:57:50;8.40;99.90
12926;DHT22;6529;50.566;9.774;2022-12-29T01:00:15;8.40;99.90
12926;DHT22;6529;50.566;9.774;2022-12-29T01:02:41;8.30;99.90
12926;DHT22;6529;50.566;9.774;2022-12-29T01:05:07;8.30;99.90
12926;DHT22;6529;50.566;9.774;2022-12-29T01:07:32;8.40;99.90
12926;DHT22;6529;50.566;9.774;2022-12-29T01:09:58;8.40;99.90
12926;DHT22;6529;50.566;9.774;2022-12-29T01:12:36;8.50;99.90
12926;DHT22;6529;50.566;9.774;2022-12-29T01:15:11;8.50;99.90
12926;DHT22;6529;50.566;9.774;2022-12-29T01:17:36;8.70;99.90
12926;DHT22;6529;50.566;9.774;2022-12-29T01:20:02;8.80;99.90
12926;DHT22;6529;50.566;9.774;2022-12-29T01:22:28;9.00;99.90
12926;DHT22;6529;50.566;9.774;2022-12-29T01:24:54;9.10;99.90
12926;DHT22;6529;50.566;9.774;2022-12-29T01:27:19;9.20;99.90
12926;DHT22;6529;50.566;9.774;2022-12-29T01:29:45;9.20;99.90
12926;DHT22;6529;50.566;9.774;2022-12-29T01:32:10;9.20;99.90
12926;DHT22;6529;50.566;9.774;2022-12-29T01:34:36;9.30;99.90
12926;DHT22;6529;50.566;9.774;2022-12-29T01:37:01;9.40;99.90
12926;DHT22;6529;50.566;9.774;2022-12-29T01:39:27;9.40;99.90
12926;DHT22;6529;50.566;9.774;2022-12-29T01:41:52;9.50;99.90
12926;DHT22;6529;50.566;9.774;2022-12-29T01:47:13;9.40;99.90
12926;DHT22;6529;50.566;9.774;2022-12-29T01:49:39;9.40;99.90
12926;DHT22;6529;50.566;9.774;2022-12-29T01:52:07;9.30;99.90
12926;DHT22;6529;50.566;9.774;2022-12-29T01:54:48;9.40;99.90
12926;DHT22;6529;50.566;9.774;2022-12-29T01:57:17;9.30;99.90
12926;DHT22;6529;50.566;9.774;2022-12-29T02:00:04;9.30;99.90
12926;DHT22;6529;50.566;9.774;2022-12-29T02:02:31;9.20;99.90
12926;DHT22;6529;50.566;9.774;2022-12-29T02:04:58;9.20;99.90
12926;DHT22;6529;50.566;9.774;2022-12-29T02:07:26;9.20;99.90
12926;DHT22;6529;50.566;9.774;2022-12-29T02:09:53;9.20;99.90
12926;DHT22;6529;50.566;9.774;2022-12-29T02:12:21;9.10;99.90
12926;DHT22;6529;50.566;9.774;2022-12-29T02:14:50;9.10;99.90
12926;DHT22;6529;50.566;9.774;2022-12-29T02:26:16;9.10;99.90
12926;DHT22;6529;50.566;9.774;2022-12-29T02:28:43;9.10;99.90
12926;DHT22;6529;50.566;9.774;2022-12-29T02:42:37;9.10;99.90
12926;DHT22;6529;50.566;9.774;2022-12-29T02:45:13;9.10;99.90
12926;DHT22;6529;50.566;9.774;2022-12-29T02:47:51;9.10;99.90
12926;DHT22;6529;50.566;9.774;2022-12-29T02:53:00;9.20;99.90
12926;DHT22;6529;50.566;9.774;2022-12-29T02:55:26;9.20;99.90
12926;DHT22;6529;50.566;9.774;2022-12-29T03:12:29;9.30;99.90
12926;DHT22;6529;50.566;9.774;2022-12-29T03:15:24;9.30;99.90
12926;DHT22;6529;50.566;9.774;2022-12-29T03:18:49;9.30;99.90
12926;DHT22;6529;50.566;9.774;2022-12-29T03:24:25;9.30;99.90
12926;DHT22;6529;50.566;9.774;2022-12-29T03:26:55;9.30;99.90
12926;DHT22;6529;50.566;9.774;2022-12-29T03:29:22;9.30;99.90
12926;DHT22;6529;50.566;9.774;2022-12-29T03:31:50;9.30;99.90
12926;DHT22;6529;50.566;9.774;2022-12-29T03:34:18;9.40;99.90
12926;DHT22;6529;50.566;9.774;2022-12-29T03:37:00;9.50;99.90
12926;DHT22;6529;50.566;9.774;2022-12-29T03:39:26;9.50;99.90
12926;DHT22;6529;50.566;9.774;2022-12-29T03:41:58;9.50;99.90
12926;DHT22;6529;50.566;9.774;2022-12-29T03:44:39;9.60;99.90
12926;DHT22;6529;50.566;9.774;2022-12-29T03:47:06;9.60;99.90
12926;DHT22;6529;50.566;9.774;2022-12-29T03:49:32;9.60;99.90
12926;DHT22;6529;50.566;9.774;2022-12-29T03:51:58;9.60;99.90
12926;DHT22;6529;50.566;9.774;2022-12-29T03:54:24;9.60;99.90
12926;DHT22;6529;50.566;9.774;2022-12-29T03:56:50;9.60;99.90
12926;DHT22;6529;50.566;9.774;2022-12-29T03:59:15;9.60;99.90
12926;DHT22;6529;50.566;9.774;2022-12-29T04:01:41;9.60;99.90
12926;DHT22;6529;50.566;9.774;2022-12-29T04:04:07;9.60;99.90
12926;DHT22;6529;50.566;9.774;2022-12-29T04:06:32;9.70;99.90
12926;DHT22;6529;50.566;9.774;2022-12-29T04:08:58;9.70;99.90
12926;DHT22;6529;50.566;9.774;2022-12-29T04:11:23;9.70;99.90
12926;DHT22;6529;50.566;9.774;2022-12-29T04:13:49;9.70;99.90
12926;DHT22;6529;50.566;9.774;2022-12-29T04:16:15;9.70;99.90
12926;DHT22;6529;50.566;9.774;2022-12-29T04:18:40;9.80;99.90
12926;DHT22;6529;50.566;9.774;2022-12-29T04:21:06;9.70;99.90
12926;DHT22;6529;50.566;9.774;2022-12-29T04:23:34;9.70;99.90
12926;DHT22;6529;50.566;9.774;2022-12-29T04:26:01;9.70;99.90
12926;DHT22;6529;50.566;9.774;2022-12-29T04:28:27;9.70;99.90
12926;DHT22;6529;50.566;9.774;2022-12-29T04:30:52;9.80;99.90
12926;DHT22;6529;50.566;9.774;2022-12-29T04:33:18;9.80;99.90
12926;DHT22;6529;50.566;9.774;2022-12-29T04:35:44;9.90;99.90
12926;DHT22;6529;50.566;9.774;2022-12-29T04:38:10;9.70;99.90
12926;DHT22;6529;50.566;9.774;2022-12-29T04:40:38;9.70;99.90
12926;DHT22;6529;50.566;9.774;2022-12-29T04:43:04;9.80;99.90
12926;DHT22;6529;50.566;9.774;2022-12-29T04:45:29;9.80;99.90
12926;DHT22;6529;50.566;9.774;2022-12-29T04:47:55;9.80;99.90
12926;DHT22;6529;50.566;9.774;2022-12-29T04:50:20;9.80;99.90
12926;DHT22;6529;50.566;9.774;2022-12-29T04:52:46;9.80;99.90
12926;DHT22;6529;50.566;9.774;2022-12-29T04:55:12;9.80;99.90
12926;DHT22;6529;50.566;9.774;2022-12-29T04:57:37;9.80;99.90
12926;DHT22;6529;50.566;9.774;2022-12-29T05:00:04;9.80;99.90
12926;DHT22;6529;50.566;9.774;2022-12-29T05:02:29;9.90;99.90
12926;DHT22;6529;50.566;9.774;2022-12-29T05:04:55;9.90;99.90
12926;DHT22;6529;50.566;9.774;2022-12-29T05:07:21;9.80;99.90
12926;DHT22;6529;50.566;9.774;2022-12-29T05:09:46;9.80;99.90
12926;DHT22;6529;50.566;9.774;2022-12-29T05:12:12;9.80;99.90
12926;DHT22;6529;50.566;9.774;2022-12-29T05:14:37;9.80;99.90
12926;DHT22;6529;50.566;9.774;2022-12-29T05:17:03;9.80;99.90
12926;DHT22;6529;50.566;9.774;2022-12-29T05:19:28;9.90;99.90
12926;DHT22;6529;50.566;9.774;2022-12-29T05:21:54;9.90;99.90
12926;DHT22;6529;50.566;9.774;2022-12-29T05:24:20;10.00;99.90
12926;DHT22;6529;50.566;9.774;2022-12-29T05:26:45;10.00;99.90
12926;DHT22;6529;50.566;9.774;2022-12-29T05:29:11;10.00;99.90
12926;DHT22;6529;50.566;9.774;2022-12-29T05:31:36;10.00;99.90
12926;DHT22;6529;50.566;9.774;2022-12-29T05:34:02;10.00;99.90
12926;DHT22;6529;50.566;9.774;2022-12-29T05:36:28;10.00;99.90
12926;DHT22;6529;50.566;9.774;2022-12-29T05:38:53;10.00;99.90
12926;DHT22;6529;50.566;9.774;2022-12-29T05:41:19;10.00;99.90
12926;DHT22;6529;50.566;9.774;2022-12-29T05:43:44;10.00;99.90
12926;DHT22;6529;50.566;9.774;2022-12-29T05:46:10;10.00;99.90
12926;DHT22;6529;50.566;9.774;2022-12-29T05:48:35;10.00;99.90
12926;DHT22;6529;50.566;9.774;2022-12-29T05:51:01;10.00;99.90
12926;DHT22;6529;50.566;9.774;2022-12-29T05:53:27;10.00;99.90
12926;DHT22;6529;50.566;9.774;2022-12-29T05:55:52;10.00;99.90
12926;DHT22;6529;50.566;9.774;2022-12-29T05:58:18;10.00;99.90
12926;DHT22;6529;50.566;9.774;2022-12-29T06:00:44;10.00;99.90
12926;DHT22;6529;50.566;9.774;2022-12-29T06:03:10;10.00;99.90
12926;DHT22;6529;50.566;9.774;2022-12-29T06:05:35;10.10;99.90
12926;DHT22;6529;50.566;9.774;2022-12-29T06:08:01;10.10;99.90
12926;DHT22;6529;50.566;9.774;2022-12-29T06:10:26;10.10;99.90
12926;DHT22;6529;50.566;9.774;2022-12-29T06:12:52;10.10;99.90
12926;DHT22;6529;50.566;9.774;2022-12-29T06:15:18;10.10;99.90
12926;DHT22;6529;50.566;9.774;2022-12-29T06:17:43;10.10;99.90
12926;DHT22;6529;50.566;9.774;2022-12-29T06:20:10;10.20;99.90
12926;DHT22;6529;50.566;9.774;2022-12-29T06:22:36;10.20;99.90
12926;DHT22;6529;50.566;9.774;2022-12-29T06:25:02;10.20;99.90
12926;DHT22;6529;50.566;9.774;2022-12-29T06:27:28;10.10;99.90
12926;DHT22;6529;50.566;9.774;2022-12-29T06:29:53;10.20;99.90
12926;DHT22;6529;50.566;9.774;2022-12-29T06:32:19;10.20;99.90
12926;DHT22;6529;50.566;9.774;2022-12-29T06:34:45;10.20;99.90
12926;DHT22;6529;50.566;9.774;2022-12-29T06:37:11;10.20;99.90
12926;DHT22;6529;50.566;9.774;2022-12-29T06:39:37;10.20;99.90
12926;DHT22;6529;50.566;9.774;2022-12-29T06:42:03;10.20;99.90
12926;DHT22;6529;50.566;9.774;2022-12-29T06:44:28;10.20;99.90
12926;DHT22;6529;50.566;9.774;2022-12-29T06:46:54;10.20;99.90
12926;DHT22;6529;50.566;9.774;2022-12-29T06:49:20;10.20;99.90
12926;DHT22;6529;50.566;9.774;2022-12-29T06:51:46;10.10;99.90
12926;DHT22;6529;50.566;9.774;2022-12-29T06:54:12;10.10;99.90
12926;DHT22;6529;50.566;9.774;2022-12-29T06:56:38;10.10;99.90
12926;DHT22;6529;50.566;9.774;2022-12-29T06:59:03;10.20;99.90
12926;DHT22;6529;50.566;9.774;2022-12-29T07:01:29;10.20;99.90
12926;DHT22;6529;50.566;9.774;2022-12-29T07:03:54;10.10;99.90
12926;DHT22;6529;50.566;9.774;2022-12-29T07:06:21;10.10;99.90
12926;DHT22;6529;50.566;9.774;2022-12-29T07:08:47;10.20;99.90
12926;DHT22;6529;50.566;9.774;2022-12-29T07:11:12;10.10;99.90
12926;DHT22;6529;50.566;9.774;2022-12-29T07:13:38;10.20;99.90
12926;DHT22;6529;50.566;9.774;2022-12-29T07:16:07;10.20;99.90
12926;DHT22;6529;50.566;9.774;2022-12-29T07:18:34;10.20;99.90
12926;DHT22;6529;50.566;9.774;2022-12-29T07:20:59;10.20;99.90
12926;DHT22;6529;50.566;9.774;2022-12-29T07:23:25;10.10;99.90
12926;DHT22;6529;50.566;9.774;2022-12-29T07:26:02;10.10;99.90
12926;DHT22;6529;50.566;9.774;2022-12-29T07:28:28;10.10;99.90
12926;DHT22;6529;50.566;9.774;2022-12-29T07:30:53;10.20;99.90
12926;DHT22;6529;50.566;9.774;2022-12-29T07:33:19;10.10;99.90
12926;DHT22;6529;50.566;9.774;2022-12-29T07:35:44;10.20;99.90
12926;DHT22;6529;50.566;9.774;2022-12-29T07:38:10;10.20;99.90
12926;DHT22;6529;50.566;9.774;2022-12-29T07:40:35;10.20;99.90
12926;DHT22;6529;50.566;9.774;2022-12-29T07:43:01;10.20;99.90
12926;DHT22;6529;50.566;9.774;2022-12-29T07:45:27;10.20;99.90
12926;DHT22;6529;50.566;9.774;2022-12-29T07:47:52;10.30;99.90
12926;DHT22;6529;50.566;9.774;2022-12-29T07:50:18;10.20;99.90
12926;DHT22;6529;50.566;9.774;2022-12-29T07:52:44;10.10;99.90
12926;DHT22;6529;50.566;9.774;2022-12-29T07:55:10;10.00;99.90
12926;DHT22;6529;50.566;9.774;2022-12-29T07:57:35;10.00;99.90
12926;DHT22;6529;50.566;9.774;2022-12-29T08:00:02;9.90;99.90
12926;DHT22;6529;50.566;9.774;2022-12-29T08:02:28;9.80;99.90
12926;DHT22;6529;50.566;9.774;2022-12-29T08:04:55;9.80;99.90
12926;DHT22;6529;50.566;9.774;2022-12-29T08:07:20;9.80;99.90
12926;DHT22;6529;50.566;9.774;2022-12-29T08:09:46;9.80;99.90
12926;DHT22;6529;50.566;9.774;2022-12-29T08:12:11;9.90;99.90
12926;DHT22;6529;50.566;9.774;2022-12-29T08:14:38;9.90;99.90
12926;DHT22;6529;50.566;9.774;2022-12-29T08:17:03;10.00;99.90
12926;DHT22;6529;50.566;9.774;2022-12-29T08:19:29;10.00;99.90
12926;DHT22;6529;50.566;9.774;2022-12-29T08:21:55;10.00;99.90
12926;DHT22;6529;50.566;9.774;2022-12-29T08:24:20;9.90;99.90
12926;DHT22;6529;50.566;9.774;2022-12-29T08:26:46;10.00;99.90
12926;DHT22;6529;50.566;9.774;2022-12-29T08:29:12;10.10;99.90
12926;DHT22;6529;50.566;9.774;2022-12-29T08:31:37;10.10;99.90
12926;DHT22;6529;50.566;9.774;2022-12-29T08:34:03;10.00;99.90
12926;DHT22;6529;50.566;9.774;2022-12-29T08:36:29;10.10;99.90
12926;DHT22;6529;50.566;9.774;2022-12-29T08:38:56;10.10;99.90
12926;DHT22;6529;50.566;9.774;2022-12-29T08:41:22;10.20;99.90
12926;DHT22;6529;50.566;9.774;2022-12-29T08:43:49;10.20;99.90
12926;DHT22;6529;50.566;9.774;2022-12-29T08:46:15;10.20;99.90
12926;DHT22;6529;50.566;9.774;2022-12-29T08:48:41;10.20;99.90
12926;DHT22;6529;50.566;9.774;2022-12-29T08:51:07;10.10;99.90
12926;DHT22;6529;50.566;9.774;2022-12-29T08:53:33;10.20;99.90
12926;DHT22;6529;50.566;9.774;2022-12-29T08:56:00;10.20;99.90
12926;DHT22;6529;50.566;9.774;2022-12-29T08:58:26;10.20;99.90
12926;DHT22;6529;50.566;9.774;2022-12-29T09:00:53;10.20;99.90
12926;DHT22;6529;50.566;9.774;2022-12-29T09:03:19;10.20;99.90
12926;DHT22;6529;50.566;9.774;2022-12-29T09:05:51;10.20;99.90
12926;DHT22;6529;50.566;9.774;2022-12-29T09:08:17;10.20;99.90
12926;DHT22;6529;50.566;9.774;2022-12-29T09:10:43;10.30;99.90
12926;DHT22;6529;50.566;9.774;2022-12-29T09:13:10;10.30;99.90
12926;DHT22;6529;50.566;9.774;2022-12-29T09:15:36;10.30;99.90
12926;DHT22;6529;50.566;9.774;2022-12-29T09:18:02;10.30;99.90
12926;DHT22;6529;50.566;9.774;2022-12-29T09:20:28;10.30;99.90
12926;DHT22;6529;50.566;9.774;2022-12-29T09:22:53;10.30;99.90
12926;DHT22;6529;50.566;9.774;2022-12-29T09:25:19;10.30;99.90
12926;DHT22;6529;50.566;9.774;2022-12-29T09:27:45;10.30;99.90
12926;DHT22;6529;50.566;9.774;2022-12-29T09:30:13;10.30;99.90
12926;DHT22;6529;50.566;9.774;2022-12-29T09:32:40;10.30;99.90
12926;DHT22;6529;50.566;9.774;2022-12-29T09:35:06;10.30;99.90
12926;DHT22;6529;50.566;9.774;2022-12-29T09:37:32;10.30;99.90
12926;DHT22;6529;50.566;9.774;2022-12-29T09:39:58;10.30;99.90
12926;DHT22;6529;50.566;9.774;2022-12-29T09:42:32;10.40;99.90
12926;DHT22;6529;50.566;9.774;2022-12-29T09:45:25;10.40;99.90
12926;DHT22;6529;50.566;9.774;2022-12-29T09:47:53;10.40;99.90
12926;DHT22;6529;50.566;9.774;2022-12-29T09:50:32;10.40;99.90
12926;DHT22;6529;50.566;9.774;2022-12-29T09:54:02;10.40;99.90
12926;DHT22;6529;50.566;9.774;2022-12-29T09:55:58;10.40;99.90
12926;DHT22;6529;50.566;9.774;2022-12-29T09:58:30;10.40;99.90
12926;DHT22;6529;50.566;9.774;2022-12-29T10:01:09;10.40;99.90
12926;DHT22;6529;50.566;9.774;2022-12-29T10:03:51;10.40;99.90
12926;DHT22;6529;50.566;9.774;2022-12-29T10:09:26;10.40;99.90
12926;DHT22;6529;50.566;9.774;2022-12-29T10:17:47;10.40;99.90
12926;DHT22;6529;50.566;9.774;2022-12-29T10:20:57;10.40;99.90
12926;DHT22;6529;50.566;9.774;2022-12-29T10:23:39;10.40;99.90
12926;DHT22;6529;50.566;9.774;2022-12-29T10:26:11;10.40;99.90
12926;DHT22;6529;50.566;9.774;2022-12-29T10:28:43;10.30;99.90
12926;DHT22;6529;50.566;9.774;2022-12-29T10:31:16;10.30;99.90
12926;DHT22;6529;50.566;9.774;2022-12-29T10:33:43;10.30;99.90
12926;DHT22;6529;50.566;9.774;2022-12-29T10:36:23;10.20;99.90
12926;DHT22;6529;50.566;9.774;2022-12-29T10:39:18;10.30;99.90
12926;DHT22;6529;50.566;9.774;2022-12-29T10:42:07;10.30;99.90
12926;DHT22;6529;50.566;9.774;2022-12-29T10:44:34;10.30;99.90
12926;DHT22;6529;50.566;9.774;2022-12-29T10:47:13;10.40;99.90
12926;DHT22;6529;50.566;9.774;2022-12-29T10:49:41;10.50;99.90
12926;DHT22;6529;50.566;9.774;2022-12-29T10:52:08;10.40;99.90
12926;DHT22;6529;50.566;9.774;2022-12-29T10:59:50;10.40;99.90
12926;DHT22;6529;50.566;9.774;2022-12-29T11:07:28;10.30;99.90
12926;DHT22;6529;50.566;9.774;2022-12-29T11:09:55;10.30;99.90
12926;DHT22;6529;50.566;9.774;2022-12-29T11:12:40;10.30;99.90
12926;DHT22;6529;50.566;9.774;2022-12-29T11:17:44;10.20;99.90
12926;DHT22;6529;50.566;9.774;2022-12-29T11:22:53;10.10;99.90
12926;DHT22;6529;50.566;9.774;2022-12-29T11:25:19;10.10;99.90
12926;DHT22;6529;50.566;9.774;2022-12-29T11:30:30;10.10;99.90
12926;DHT22;6529;50.566;9.774;2022-12-29T11:32:57;10.00;99.90
12926;DHT22;6529;50.566;9.774;2022-12-29T11:35:36;10.00;99.90
12926;DHT22;6529;50.566;9.774;2022-12-29T11:38:04;10.00;99.90
12926;DHT22;6529;50.566;9.774;2022-12-29T11:40:30;10.00;99.90
12926;DHT22;6529;50.566;9.774;2022-12-29T11:43:03;9.90;99.90
12926;DHT22;6529;50.566;9.774;2022-12-29T11:45:35;10.00;99.90
12926;DHT22;6529;50.566;9.774;2022-12-29T11:48:16;9.90;99.90
12926;DHT22;6529;50.566;9.774;2022-12-29T11:50:49;9.90;99.90
12926;DHT22;6529;50.566;9.774;2022-12-29T11:53:21;9.90;99.90
12926;DHT22;6529;50.566;9.774;2022-12-29T11:55:56;10.00;99.90
12926;DHT22;6529;50.566;9.774;2022-12-29T11:58:32;10.00;99.90
12926;DHT22;6529;50.566;9.774;2022-12-29T12:01:23;10.00;99.90
12926;DHT22;6529;50.566;9.774;2022-12-29T12:04:07;10.00;99.90
12926;DHT22;6529;50.566;9.774;2022-12-29T12:06:41;10.20;99.90
12926;DHT22;6529;50.566;9.774;2022-12-29T12:09:26;10.30;99.90
12926;DHT22;6529;50.566;9.774;2022-12-29T12:11:54;10.30;99.90
12926;DHT22;6529;50.566;9.774;2022-12-29T12:14:53;10.40;99.90
12926;DHT22;6529;50.566;9.774;2022-12-29T12:28:59;10.20;99.90
12926;DHT22;6529;50.566;9.774;2022-12-29T12:34:13;10.20;99.90
12926;DHT22;6529;50.566;9.774;2022-12-29T12:36:49;10.20;99.90
12926;DHT22;6529;50.566;9.774;2022-12-29T12:53:26;10.10;99.90
12926;DHT22;6529;50.566;9.774;2022-12-29T12:58:52;10.20;99.90
12926;DHT22;6529;50.566;9.774;2022-12-29T13:06:51;10.40;99.90
12926;DHT22;6529;50.566;9.774;2022-12-29T13:17:28;10.20;99.90
12926;DHT22;6529;50.566;9.774;2022-12-29T13:23:00;10.20;99.90
12926;DHT22;6529;50.566;9.774;2022-12-29T13:25:47;10.20;99.90
12926;DHT22;6529;50.566;9.774;2022-12-29T13:36:48;10.10;99.90
12926;DHT22;6529;50.566;9.774;2022-12-29T13:39:24;10.10;99.90
12926;DHT22;6529;50.566;9.774;2022-12-29T13:41:54;10.00;99.90
12926;DHT22;6529;50.566;9.774;2022-12-29T13:46:56;10.00;99.90
12926;DHT22;6529;50.566;9.774;2022-12-29T13:49:24;10.00;99.90
12926;DHT22;6529;50.566;9.774;2022-12-29T13:52:16;10.00;99.90
12926;DHT22;6529;50.566;9.774;2022-12-29T14:00:26;10.10;99.90
12926;DHT22;6529;50.566;9.774;2022-12-29T14:05:32;9.90;99.90
12926;DHT22;6529;50.566;9.774;2022-12-29T14:08:15;9.90;99.90
12926;DHT22;6529;50.566;9.774;2022-12-29T14:10:50;9.90;99.90
12926;DHT22;6529;50.566;9.774;2022-12-29T14:13:23;9.90;99.90
12926;DHT22;6529;50.566;9.774;2022-12-29T14:15:52;9.90;99.90
12926;DHT22;6529;50.566;9.774;2022-12-29T14:18:21;9.90;99.90
12926;DHT22;6529;50.566;9.774;2022-12-29T14:23:39;9.90;99.90
12926;DHT22;6529;50.566;9.774;2022-12-29T14:31:02;9.90;99.90
12926;DHT22;6529;50.566;9.774;2022-12-29T14:33:30;9.90;99.90
12926;DHT22;6529;50.566;9.774;2022-12-29T14:35:57;9.80;99.90
12926;DHT22;6529;50.566;9.774;2022-12-29T14:38:46;9.80;99.90
12926;DHT22;6529;50.566;9.774;2022-12-29T14:41:18;9.80;99.90
12926;DHT22;6529;50.566;9.774;2022-12-29T14:44:19;9.80;99.90
12926;DHT22;6529;50.566;9.774;2022-12-29T14:46:55;9.80;99.90
12926;DHT22;6529;50.566;9.774;2022-12-29T14:49:25;9.80;99.90
12926;DHT22;6529;50.566;9.774;2022-12-29T14:51:54;9.80;99.90
12926;DHT22;6529;50.566;9.774;2022-12-29T14:54:41;9.80;99.90
12926;DHT22;6529;50.566;9.774;2022-12-29T14:57:14;9.80;99.90
12926;DHT22;6529;50.566;9.774;2022-12-29T14:59:41;9.70;99.90
12926;DHT22;6529;50.566;9.774;2022-12-29T15:02:17;9.70;99.90
12926;DHT22;6529;50.566;9.774;2022-12-29T15:04:44;9.70;99.90
12926;DHT22;6529;50.566;9.774;2022-12-29T15:07:11;9.70;99.90
12926;DHT22;6529;50.566;9.774;2022-12-29T15:09:47;9.60;99.90
12926;DHT22;6529;50.566;9.774;2022-12-29T15:14:53;9.60;99.90
12926;DHT22;6529;50.566;9.774;2022-12-29T15:17:29;9.60;99.90
12926;DHT22;6529;50.566;9.774;2022-12-29T15:19:56;9.60;99.90
12926;DHT22;6529;50.566;9.774;2022-12-29T15:22:22;9.60;99.90
12926;DHT22;6529;50.566;9.774;2022-12-29T15:24:53;9.60;99.90
12926;DHT22;6529;50.566;9.774;2022-12-29T15:27:25;9.60;99.90
12926;DHT22;6529;50.566;9.774;2022-12-29T15:30:02;9.50;99.90
12926;DHT22;6529;50.566;9.774;2022-12-29T15:32:38;9.60;99.90
12926;DHT22;6529;50.566;9.774;2022-12-29T15:37:47;9.50;99.90
12926;DHT22;6529;50.566;9.774;2022-12-29T15:40:28;9.50;99.90
12926;DHT22;6529;50.566;9.774;2022-12-29T15:43:07;9.50;99.90
12926;DHT22;6529;50.566;9.774;2022-12-29T15:45:36;9.50;99.90
12926;DHT22;6529;50.566;9.774;2022-12-29T15:48:03;9.50;99.90
12926;DHT22;6529;50.566;9.774;2022-12-29T15:50:32;9.60;99.90
12926;DHT22;6529;50.566;9.774;2022-12-29T15:52:58;9.60;99.90
12926;DHT22;6529;50.566;9.774;2022-12-29T15:55:37;9.50;99.90
12926;DHT22;6529;50.566;9.774;2022-12-29T15:58:05;9.50;99.90
12926;DHT22;6529;50.566;9.774;2022-12-29T16:00:47;9.40;99.90
12926;DHT22;6529;50.566;9.774;2022-12-29T16:03:14;9.40;99.90
12926;DHT22;6529;50.566;9.774;2022-12-29T16:05:40;9.40;99.90
12926;DHT22;6529;50.566;9.774;2022-12-29T16:08:29;9.30;99.90
12926;DHT22;6529;50.566;9.774;2022-12-29T16:10:59;9.30;99.90
12926;DHT22;6529;50.566;9.774;2022-12-29T16:13:34;9.30;99.90
12926;DHT22;6529;50.566;9.774;2022-12-29T16:16:18;9.30;99.90
12926;DHT22;6529;50.566;9.774;2022-12-29T16:18:44;9.30;99.90
12926;DHT22;6529;50.566;9.774;2022-12-29T16:21:33;9.30;99.90
12926;DHT22;6529;50.566;9.774;2022-12-29T16:24:12;9.20;99.90
12926;DHT22;6529;50.566;9.774;2022-12-29T16:26:39;9.20;99.90
12926;DHT22;6529;50.566;9.774;2022-12-29T16:29:12;9.10;99.90
12926;DHT22;6529;50.566;9.774;2022-12-29T16:37:31;9.00;99.90
12926;DHT22;6529;50.566;9.774;2022-12-29T16:50:31;9.00;99.90
12926;DHT22;6529;50.566;9.774;2022-12-29T16:52:57;9.00;99.90
12926;DHT22;6529;50.566;9.774;2022-12-29T16:55:23;9.00;99.90
12926;DHT22;6529;50.566;9.774;2022-12-29T16:57:50;9.10;99.90
12926;DHT22;6529;50.566;9.774;2022-12-29T17:00:24;9.10;99.90
12926;DHT22;6529;50.566;9.774;2022-12-29T17:02:52;9.10;99.90
12926;DHT22;6529;50.566;9.774;2022-12-29T17:05:19;9.10;99.90
12926;DHT22;6529;50.566;9.774;2022-12-29T17:07:45;9.00;99.90
12926;DHT22;6529;50.566;9.774;2022-12-29T17:10:11;9.00;99.90
12926;DHT22;6529;50.566;9.774;2022-12-29T17:12:39;8.90;99.90
12926;DHT22;6529;50.566;9.774;2022-12-29T17:15:14;8.80;99.90
12926;DHT22;6529;50.566;9.774;2022-12-29T17:22:43;8.70;99.90
12926;DHT22;6529;50.566;9.774;2022-12-29T17:25:35;8.60;99.90
12926;DHT22;6529;50.566;9.774;2022-12-29T17:28:20;8.70;99.90
12926;DHT22;6529;50.566;9.774;2022-12-29T17:30:46;8.60;99.90
12926;DHT22;6529;50.566;9.774;2022-12-29T17:33:15;8.60;99.90
12926;DHT22;6529;50.566;9.774;2022-12-29T17:35:41;8.60;99.90
12926;DHT22;6529;50.566;9.774;2022-12-29T17:38:27;8.60;99.90
12926;DHT22;6529;50.566;9.774;2022-12-29T17:40:53;8.60;99.90
12926;DHT22;6529;50.566;9.774;2022-12-29T17:43:19;8.60;99.90
12926;DHT22;6529;50.566;9.774;2022-12-29T17:45:50;8.50;99.90
12926;DHT22;6529;50.566;9.774;2022-12-29T17:48:18;8.50;99.90
12926;DHT22;6529;50.566;9.774;2022-12-29T17:50:46;8.50;99.90
12926;DHT22;6529;50.566;9.774;2022-12-29T17:53:20;8.50;99.90
12926;DHT22;6529;50.566;9.774;2022-12-29T17:55:46;8.60;99.90
12926;DHT22;6529;50.566;9.774;2022-12-29T18:00:41;8.60;99.90
12926;DHT22;6529;50.566;9.774;2022-12-29T18:03:12;8.60;99.90
12926;DHT22;6529;50.566;9.774;2022-12-29T18:05:38;8.60;99.90
12926;DHT22;6529;50.566;9.774;2022-12-29T18:08:04;8.60;99.90
12926;DHT22;6529;50.566;9.774;2022-12-29T18:10:30;8.60;99.90
12926;DHT22;6529;50.566;9.774;2022-12-29T18:12:58;8.60;99.90
12926;DHT22;6529;50.566;9.774;2022-12-29T18:15:35;8.60;99.90
12926;DHT22;6529;50.566;9.774;2022-12-29T18:18:12;8.60;99.90
12926;DHT22;6529;50.566;9.774;2022-12-29T18:20:39;8.60;99.90
12926;DHT22;6529;50.566;9.774;2022-12-29T18:23:06;8.50;99.90
12926;DHT22;6529;50.566;9.774;2022-12-29T18:25:53;8.60;99.90
12926;DHT22;6529;50.566;9.774;2022-12-29T18:28:20;8.70;99.90
12926;DHT22;6529;50.566;9.774;2022-12-29T18:30:46;8.60;99.90
12926;DHT22;6529;50.566;9.774;2022-12-29T18:33:16;8.60;99.90
12926;DHT22;6529;50.566;9.774;2022-12-29T18:35:58;8.60;99.90
12926;DHT22;6529;50.566;9.774;2022-12-29T18:38:24;8.50;99.90
12926;DHT22;6529;50.566;9.774;2022-12-29T18:40:50;8.50;99.90
12926;DHT22;6529;50.566;9.774;2022-12-29T18:43:18;8.50;99.90
12926;DHT22;6529;50.566;9.774;2022-12-29T18:45:44;8.40;99.90
12926;DHT22;6529;50.566;9.774;2022-12-29T18:48:17;8.40;99.90
12926;DHT22;6529;50.566;9.774;2022-12-29T18:50:44;8.30;99.90
12926;DHT22;6529;50.566;9.774;2022-12-29T18:53:17;8.30;99.90
12926;DHT22;6529;50.566;9.774;2022-12-29T18:55:43;8.30;99.90
12926;DHT22;6529;50.566;9.774;2022-12-29T18:58:09;8.30;99.90
12926;DHT22;6529;50.566;9.774;2022-12-29T19:00:34;8.20;99.90
12926;DHT22;6529;50.566;9.774;2022-12-29T19:03:00;8.30;99.90
12926;DHT22;6529;50.566;9.774;2022-12-29T19:05:34;8.20;99.90
12926;DHT22;6529;50.566;9.774;2022-12-29T19:08:00;8.30;99.90